Time;durP1;ratioP1;P1;durP2;ratioP2;P2;SDS_P1;SDS_P2;PMS_P1;PMS_P2;Temp;Humidity;BMP_temperature;BMP_pressure;BME280_temperature;BME280_humidity;BME280_pressure;Samples;Min_cycle;Max_cycle;Signal;HPM_P1;HPM_P2
2022/09/01 00:00:37;;;;;;;;;;;;;;;;;;5042982;28;19931;-79
2022/09/01 00:03:03;;;;;;;;;;;;;;;;;;5042058;28;19928;-80
2022/09/01 00:05:31;;;;;;;;;;;;;;;;;;5041856;28;20414;-80
2022/09/01 00:07:59;;;;;;;;;;;;;;;;;;5041801;28;19929;-80
2022/09/01 00:10:26;;;;;;;;;;;;;;;;;;5041145;28;19925;-80
2022/09/01 00:12:52;;;;;;;;;;;;;;;;;;5041694;28;19987;-80
2022/09/01 00:15:19;;;;;;;;;;;;;;;;;;5041216;28;19954;-80
2022/09/01 00:17:45;;;;;;;;;;;;;;;;;;5041243;28;20350;-79
2022/09/01 00:20:12;;;;;;;;;;;;;;;;;;5041573;28;19925;-78
2022/09/01 00:22:38;;;;;;;;;;;;;;;;;;5041712;28;19975;-80
2022/09/01 00:25:07;;;;;;;;;;;;;;;;;;5041567;28;19976;-80
2022/09/01 00:27:34;;;;;;;;;;;;;;;;;;5041224;28;19931;-79
2022/09/01 00:30:00;;;;;;;;;;;;;;;;;;5041053;28;19925;-78
2022/09/01 00:32:27;;;;;;;;;;;;;;;;;;5040868;28;19968;-80
2022/09/01 00:34:53;;;;;;;;;;;;;;;;;;5067818;22;19928;-76
2022/09/01 00:37:20;;;;;;;;;;;;;;;;;;5098839;28;20287;-78
2022/09/01 00:39:46;;;;;;;;;;;;;;;;;;5098614;28;20023;-77
2022/09/01 00:42:14;;;;;;;;;;;;;;;;;;5099097;28;19963;-77
2022/09/01 00:44:41;;;;;;;;;;;;;;;;;;5098629;28;19924;-77
2022/09/01 00:47:07;;;;;;;;;;;;;;;;;;5098555;28;20022;-76
2022/09/01 00:49:36;;;;;;;;;;;;;;;;;;5098880;28;19925;-77
2022/09/01 00:52:04;;;;;;;;;;;;;;;;;;5098734;28;19930;-78
2022/09/01 00:54:32;;;;;;;;;;;;;;;;;;5098956;28;19924;-79
2022/09/01 00:57:00;;;;;;;;;;;;;;;;;;5104593;28;20376;-79
2022/09/01 00:59:28;;;;;;;;;;;;;;;;;;5101777;28;19997;-79
2022/09/01 01:01:55;;;;;;;;;;;;;;;;;;5098332;28;20448;-78
2022/09/01 01:04:22;;;;;;;;;;;;;;;;;;5101224;28;20014;-79
2022/09/01 01:06:57;;;;;;;;;;;;;;;;;;5101172;28;20000;-79
2022/09/01 01:09:24;;;;;;;;;;;;;;;;;;5100972;28;19970;-80
2022/09/01 01:11:52;;;;;;;;;;;;;;;;;;5097583;28;20440;-78
2022/09/01 01:14:18;;;;;;;;;;;;;;;;;;5095040;28;19927;-78
2022/09/01 01:16:51;;;;;;;;;;;;;;;;;;5095235;28;19993;-77
2022/09/01 01:24:48;;;;;;;;;;;;;;;;;;5100415;28;19932;-78
2022/09/01 01:27:16;;;;;;;;;;;;;;;;;;5095060;28;20348;-78
2022/09/01 01:29:43;;;;;;;;;;;;;;;;;;5094930;28;19975;-79
2022/09/01 01:32:11;;;;;;;;;;;;;;;;;;5095183;28;19954;-80
2022/09/01 01:34:39;;;;;;;;;;;;;;;;;;5100226;28;19986;-79
2022/09/01 01:37:05;;;;;;;;;;;;;;;;;;5101340;28;20011;-79
2022/09/01 01:39:32;;;;;;;;;;;;;;;;;;5099551;28;19924;-78
2022/09/01 01:42:00;;;;;;;;;;;;;;;;;;5100431;28;19924;-78
2022/09/01 01:44:28;;;;;;;;;;;;;;;;;;5105181;28;20481;-78
2022/09/01 01:46:56;;;;;;;;;;;;;;;;;;5107568;28;19954;-80
2022/09/01 01:49:24;;;;;;;;;;;;;;;;;;5103412;28;19971;-78
2022/09/01 01:51:54;;;;;;;;;;;;;;;;;;5098112;28;19931;-78
2022/09/01 01:54:21;;;;;;;;;;;;;;;;;;5098374;28;19953;-78
2022/09/01 01:56:48;;;;;;;;;;;;;;;;;;5095380;28;19928;-78
2022/09/01 01:59:16;;;;;;;;;;;;;;;;;;5094499;28;19963;-77
2022/09/01 02:01:49;;;;;;;;;;;;;;;;;;5094587;28;19928;-77
2022/09/01 02:04:16;;;;;;;;;;;;;;;;;;5094317;28;20294;-78
2022/09/01 02:06:44;;;;;;;;;;;;;;;;;;5094193;28;19978;-78
2022/09/01 02:09:11;;;;;;;;;;;;;;;;;;5094312;28;19936;-78
2022/09/01 02:11:38;;;;;;;;;;;;;;;;;;5093796;28;19946;-78
2022/09/01 02:14:05;;;;;;;;;;;;;;;;;;5095196;28;19924;-79
2022/09/01 02:16:34;;;;;;;;;;;;;;;;;;5100204;28;19960;-79
2022/09/01 02:19:01;;;;;;;;;;;;;;;;;;5099442;28;19927;-79
2022/09/01 02:21:28;;;;;;;;;;;;;;;;;;5100490;28;19924;-79
2022/09/01 02:23:59;;;;;;;;;;;;;;;;;;5100289;28;19924;-79
2022/09/01 02:26:30;;;;;;;;;;;;;;;;;;5100508;28;20019;-79
2022/09/01 02:29:00;;;;;;;;;;;;;;;;;;5100896;28;19979;-78
2022/09/01 02:31:27;;;;;;;;;;;;;;;;;;5107968;28;19946;-78
2022/09/01 02:33:55;;;;;;;;;;;;;;;;;;5107345;28;19947;-78
2022/09/01 02:36:23;;;;;;;;;;;;;;;;;;5105966;28;20011;-78
2022/09/01 02:38:50;;;;;;;;;;;;;;;;;;5106577;28;20344;-79
2022/09/01 02:41:22;;;;;;;;;;;;;;;;;;5100400;28;19974;-78
2022/09/01 02:43:48;;;;;;;;;;;;;;;;;;5100496;28;19928;-79
2022/09/01 02:46:15;;;;;;;;;;;;;;;;;;5099913;28;19924;-77
2022/09/01 02:48:44;;;;;;;;;;;;;;;;;;5099154;28;19924;-78
2022/09/01 02:51:15;;;;;;;;;;;;;;;;;;5101321;28;19928;-78
2022/09/01 02:53:42;;;;;;;;;;;;;;;;;;5101517;28;19931;-78
2022/09/01 02:56:13;;;;;;;;;;;;;;;;;;5098361;28;19924;-78
2022/09/01 02:58:44;;;;;;;;;;;;;;;;;;5098201;28;20361;-78
2022/09/01 03:01:12;;;;;;;;;;;;;;;;;;5097656;28;19932;-79
2022/09/01 03:03:38;;;;;;;;;;;;;;;;;;5097817;28;19954;-79
2022/09/01 03:06:06;;;;;;;;;;;;;;;;;;5097671;28;19934;-78
2022/09/01 03:08:35;;;;;;;;;;;;;;;;;;5097747;28;19975;-79
2022/09/01 03:11:02;;;;;;;;;;;;;;;;;;5096703;28;19970;-77
2022/09/01 03:13:30;;;;;;;;;;;;;;;;;;5097547;28;19971;-79
2022/09/01 03:15:56;;;;;;;;;;;;;;;;;;5098302;28;19970;-78
2022/09/01 03:18:23;;;;;;;;;;;;;;;;;;5097754;28;19928;-79
2022/09/01 03:20:49;;;;;;;;;;;;;;;;;;5097547;28;19924;-79
2022/09/01 03:23:17;;;;;;;;;;;;;;;;;;5097614;28;19931;-79
2022/09/01 03:25:46;;;;;;;;;;;;;;;;;;5096987;28;20345;-79
2022/09/01 03:28:13;;;;;;;;;;;;;;;;;;5097240;28;19924;-78
2022/09/01 03:30:44;;;;;;;;;;;;;;;;;;5096570;28;20212;-79
2022/09/01 03:33:11;;;;;;;;;;;;;;;;;;5096398;28;19989;-78
2022/09/01 03:35:37;;;;;;;;;;;;;;;;;;5097210;28;19924;-79
2022/09/01 03:38:04;;;;;;;;;;;;;;;;;;5096683;28;19970;-78
2022/09/01 03:40:32;;;;;;;;;;;;;;;;;;5096565;28;20392;-79
2022/09/01 03:43:00;;;;;;;;;;;;;;;;;;5096715;28;19924;-79
2022/09/01 03:45:28;;;;;;;;;;;;;;;;;;5092668;28;20409;-77
2022/09/01 03:47:55;;;;;;;;;;;;;;;;;;5093367;28;19924;-78
2022/09/01 03:50:22;;;;;;;;;;;;;;;;;;5092612;28;19928;-78
2022/09/01 03:52:50;;;;;;;;;;;;;;;;;;5092702;28;19924;-78
2022/09/01 03:55:22;;;;;;;;;;;;;;;;;;5092429;28;19943;-78
2022/09/01 03:57:49;;;;;;;;;;;;;;;;;;5092729;28;19928;-78
2022/09/01 04:00:22;;;;;;;;;;;;;;;;;;5092600;28;19924;-78
2022/09/01 04:02:49;;;;;;;;;;;;;;;;;;5092814;28;19927;-77
2022/09/01 04:05:16;;;;;;;;;;;;;;;;;;5092726;28;19931;-78
2022/09/01 04:07:45;;;;;;;;;;;;;;;;;;5092652;28;20383;-77
2022/09/01 04:10:12;;;;;;;;;;;;;;;;;;5092688;28;20022;-79
2022/09/01 04:12:39;;;;;;;;;;;;;;;;;;5093807;28;19928;-78
2022/09/01 04:15:06;;;;;;;;;;;;;;;;;;5093300;28;19924;-80
2022/09/01 04:20:20;;;;;;;;;;;;;;;;;;5092206;28;19931;-78
2022/09/01 04:22:49;;;;;;;;;;;;;;;;;;5096170;28;19924;-78
2022/09/01 04:25:16;;;;;;;;;;;;;;;;;;5097066;28;20340;-79
2022/09/01 04:27:46;;;;;;;;;;;;;;;;;;5094283;28;19924;-77
2022/09/01 04:30:12;;;;;;;;;;;;;;;;;;5095815;28;20426;-78
2022/09/01 04:32:42;;;;;;;;;;;;;;;;;;5092236;28;19928;-77
2022/09/01 04:35:15;;;;;;;;;;;;;;;;;;5093114;28;19924;-77
2022/09/01 04:37:42;;;;;;;;;;;;;;;;;;5092320;28;19924;-77
2022/09/01 04:40:09;;;;;;;;;;;;;;;;;;5091926;28;19924;-77
2022/09/01 04:42:35;;;;;;;;;;;;;;;;;;5094225;28;20344;-77
2022/09/01 04:45:03;;;;;;;;;;;;;;;;;;5095867;28;19928;-77
2022/09/01 04:47:32;;;;;;;;;;;;;;;;;;5096339;28;19928;-78
2022/09/01 04:50:00;;;;;;;;;;;;;;;;;;5095682;28;19928;-76
2022/09/01 04:52:27;;;;;;;;;;;;;;;;;;5095616;28;19924;-77
2022/09/01 04:54:54;;;;;;;;;;;;;;;;;;5096907;28;19924;-78
2022/09/01 04:57:20;;;;;;;;;;;;;;;;;;5100755;28;20267;-78
2022/09/01 04:59:47;;;;;;;;;;;;;;;;;;5099095;28;20006;-78
2022/09/01 05:02:13;;;;;;;;;;;;;;;;;;5095542;28;19924;-78
2022/09/01 05:04:40;;;;;;;;;;;;;;;;;;5095460;28;19928;-77
2022/09/01 05:07:09;;;;;;;;;;;;;;;;;;5095795;28;20409;-77
2022/09/01 05:09:36;;;;;;;;;;;;;;;;;;5096069;28;19931;-76
2022/09/01 05:12:09;;;;;;;;;;;;;;;;;;5105518;28;19991;-77
2022/09/01 05:14:36;;;;;;;;;;;;;;;;;;5101975;28;19938;-80
2022/09/01 05:17:09;;;;;;;;;;;;;;;;;;5100514;28;19924;-80
2022/09/01 05:19:36;;;;;;;;;;;;;;;;;;5098738;28;19966;-78
2022/09/01 05:22:03;;;;;;;;;;;;;;;;;;5100622;28;19934;-79
2022/09/01 05:24:33;;;;;;;;;;;;;;;;;;5111763;28;19924;-78
2022/09/01 05:27:00;;;;;;;;;;;;;;;;;;5106116;28;19930;-77
2022/09/01 05:29:28;;;;;;;;;;;;;;;;;;5107924;28;19924;-78
2022/09/01 05:31:55;;;;;;;;;;;;;;;;;;5098965;28;19925;-79
2022/09/01 05:34:25;;;;;;;;;;;;;;;;;;5096278;28;19924;-78
2022/09/01 05:36:53;;;;;;;;;;;;;;;;;;5096154;28;20022;-78
2022/09/01 05:39:20;;;;;;;;;;;;;;;;;;5096499;28;19977;-78
2022/09/01 05:41:48;;;;;;;;;;;;;;;;;;5095495;28;19924;-76
2022/09/01 05:44:17;;;;;;;;;;;;;;;;;;5095311;28;19979;-77
2022/09/01 05:46:43;;;;;;;;;;;;;;;;;;5095410;28;19927;-78
2022/09/01 05:49:12;;;;;;;;;;;;;;;;;;5097411;28;20386;-78
2022/09/01 05:51:40;;;;;;;;;;;;;;;;;;5094994;28;19931;-78
2022/09/01 05:54:08;;;;;;;;;;;;;;;;;;5094517;28;19924;-77
2022/09/01 05:56:38;;;;;;;;;;;;;;;;;;5095102;28;19928;-78
2022/09/01 05:59:05;;;;;;;;;;;;;;;;;;5094813;28;19970;-79
2022/09/01 06:01:32;;;;;;;;;;;;;;;;;;5095151;28;19924;-78
2022/09/01 06:04:02;;;;;;;;;;;;;;;;;;5094887;28;20351;-78
2022/09/01 06:06:31;;;;;;;;;;;;;;;;;;5094792;28;19924;-77
2022/09/01 06:08:58;;;;;;;;;;;;;;;;;;5094843;28;19932;-78
2022/09/01 06:11:25;;;;;;;;;;;;;;;;;;5096573;28;19948;-77
2022/09/01 06:13:55;;;;;;;;;;;;;;;;;;5098963;28;20254;-79
2022/09/01 06:16:24;;;;;;;;;;;;;;;;;;5097164;28;19930;-78
2022/09/01 06:18:52;;;;;;;;;;;;;;;;;;5094512;28;19924;-77
2022/09/01 06:21:19;;;;;;;;;;;;;;;;;;5095991;28;19924;-79
2022/09/01 06:23:45;;;;;;;;;;;;;;;;;;5099726;28;19924;-79
2022/09/01 06:26:16;;;;;;;;;;;;;;;;;;5099234;28;19924;-79
2022/09/01 06:28:43;;;;;;;;;;;;;;;;;;5097779;28;19955;-76
2022/09/01 06:31:10;;;;;;;;;;;;;;;;;;5094050;28;19993;-77
2022/09/01 06:33:39;;;;;;;;;;;;;;;;;;5094070;28;19938;-78
2022/09/01 06:36:08;;;;;;;;;;;;;;;;;;5105038;22;19924;-80
2022/09/01 06:38:34;;;;;;;;;;;;;;;;;;5097008;28;19928;-78
2022/09/01 06:41:03;;;;;;;;;;;;;;;;;;5096115;28;20021;-80
2022/09/01 06:43:30;;;;;;;;;;;;;;;;;;5096296;28;19931;-78
2022/09/01 06:45:57;;;;;;;;;;;;;;;;;;5096128;28;19931;-79
2022/09/01 06:48:23;;;;;;;;;;;;;;;;;;5095451;28;19924;-78
2022/09/01 06:50:51;;;;;;;;;;;;;;;;;;5095297;28;19924;-78
2022/09/01 06:53:20;;;;;;;;;;;;;;;;;;5095508;28;19924;-78
2022/09/01 06:55:48;;;;;;;;;;;;;;;;;;5095517;28;19924;-77
2022/09/01 06:58:15;;;;;;;;;;;;;;;;;;5096169;28;19924;-78
2022/09/01 07:00:42;;;;;;;;;;;;;;;;;;5095899;28;19934;-78
2022/09/01 07:03:09;;;;;;;;;;;;;;;;;;5095985;28;19924;-78
2022/09/01 07:05:38;;;;;;;;;;;;;;;;;;5094725;28;19946;-77
2022/09/01 07:08:08;;;;;;;;;;;;;;;;;;5100141;28;20358;-79
2022/09/01 07:10:39;;;;;;;;;;;;;;;;;;5096545;28;19931;-78
2022/09/01 07:13:08;;;;;;;;;;;;;;;;;;5094103;28;19924;-76
2022/09/01 07:15:38;;;;;;;;;;;;;;;;;;5093214;28;19924;-77
2022/09/01 07:18:05;;;;;;;;;;;;;;;;;;5093025;28;19954;-76
2022/09/01 07:20:38;;;;;;;;;;;;;;;;;;5092957;28;19932;-75
2022/09/01 07:23:05;;;;;;;;;;;;;;;;;;5093154;28;19924;-76
2022/09/01 07:25:37;;;;;;;;;;;;;;;;;;5093140;28;19968;-77
2022/09/01 07:28:04;;;;;;;;;;;;;;;;;;5093194;28;20362;-76
2022/09/01 07:30:32;;;;;;;;;;;;;;;;;;5092672;28;19928;-77
2022/09/01 07:32:59;;;;;;;;;;;;;;;;;;5092788;28;19924;-76
2022/09/01 07:35:25;;;;;;;;;;;;;;;;;;5092480;28;20623;-75
2022/09/01 07:37:52;;;;;;;;;;;;;;;;;;5092553;28;20346;-76
2022/09/01 07:40:21;;;;;;;;;;;;;;;;;;5092743;28;19964;-77
2022/09/01 07:42:53;;;;;;;;;;;;;;;;;;5092560;28;20448;-76
2022/09/01 07:45:22;;;;;;;;;;;;;;;;;;5092923;28;19925;-76
2022/09/01 07:47:49;;;;;;;;;;;;;;;;;;5092556;28;19932;-76
2022/09/01 07:50:17;;;;;;;;;;;;;;;;;;5092621;28;19924;-76
2022/09/01 07:52:43;;;;;;;;;;;;;;;;;;5092539;28;19924;-76
2022/09/01 07:55:11;;;;;;;;;;;;;;;;;;5092393;28;19975;-76
2022/09/01 07:57:37;;;;;;;;;;;;;;;;;;5092586;28;19924;-76
2022/09/01 08:00:06;;;;;;;;;;;;;;;;;;5095644;28;19924;-76
2022/09/01 08:02:33;;;;;;;;;;;;;;;;;;5107244;28;19928;-76
2022/09/01 08:04:59;;;;;;;;;;;;;;;;;;5107343;28;19925;-77
2022/09/01 08:07:26;;;;;;;;;;;;;;;;;;5106287;28;19924;-77
2022/09/01 08:09:52;;;;;;;;;;;;;;;;;;5095465;28;19928;-77
2022/09/01 08:12:19;;;;;;;;;;;;;;;;;;5092974;28;19978;-77
2022/09/01 08:14:46;;;;;;;;;;;;;;;;;;5092507;28;19975;-77
2022/09/01 08:17:38;;;;;;;;;;;;;;;;;;5095213;28;19981;-77
2022/09/01 08:20:07;;;;;;;;;;;;;;;;;;5096534;28;19981;-77
2022/09/01 08:22:36;;;;;;;;;;;;;;;;;;5096631;28;19928;-77
2022/09/01 08:25:02;;;;;;;;;;;;;;;;;;5096548;28;19932;-77
2022/09/01 08:27:29;;;;;;;;;;;;;;;;;;5096693;28;19928;-80
2022/09/01 08:29:55;;;;;;;;;;;;;;;;;;5099449;28;19930;-79
2022/09/01 08:32:22;;;;;;;;;;;;;;;;;;5100514;28;19979;-78
2022/09/01 08:34:48;;;;;;;;;;;;;;;;;;5100888;28;20050;-79
2022/09/01 08:37:16;;;;;;;;;;;;;;;;;;5099754;28;19959;-78
2022/09/01 08:39:42;;;;;;;;;;;;;;;;;;5099925;28;19964;-80
2022/09/01 08:42:13;;;;;;;;;;;;;;;;;;5099699;28;20023;-79
2022/09/01 08:44:44;;;;;;;;;;;;;;;;;;5099611;28;20322;-80
2022/09/01 08:47:12;;;;;;;;;;;;;;;;;;5100824;28;19924;-80
2022/09/01 08:49:39;;;;;;;;;;;;;;;;;;5099380;28;19932;-80
2022/09/01 08:52:11;;;;;;;;;;;;;;;;;;5100290;28;20311;-80
2022/09/01 08:54:44;;;;;;;;;;;;;;;;;;5100243;28;19924;-80
2022/09/01 08:57:14;;;;;;;;;;;;;;;;;;5099782;28;19960;-80
2022/09/01 08:59:41;;;;;;;;;;;;;;;;;;5099075;28;19959;-78
2022/09/01 09:02:15;;;;;;;;;;;;;;;;;;5084986;28;20012;-78
2022/09/01 09:04:51;;;;;;;;;;;;;;;;;;5093578;28;19924;-77
2022/09/01 09:07:23;;;;;;;;;;;;;;;;;;5087377;28;19991;-77
2022/09/01 09:09:53;;;;;;;;;;;;;;;;;;5082890;28;19959;-76
2022/09/01 09:12:29;;;;;;;;;;;;;;;;;;5080798;28;19946;-78
2022/09/01 09:15:02;;;;;;;;;;;;;;;;;;5093685;28;19931;-77
2022/09/01 09:17:30;;;;;;;;;;;;;;;;;;5086106;28;19925;-76
2022/09/01 09:19:56;;;;;;;;;;;;;;;;;;5075541;28;19925;-77
2022/09/01 09:22:23;;;;;;;;;;;;;;;;;;5075592;28;20022;-77
2022/09/01 09:24:54;;;;;;;;;;;;;;;;;;5075403;28;20020;-77
2022/09/01 09:27:22;;;;;;;;;;;;;;;;;;5074552;28;19924;-77
2022/09/01 09:29:51;;;;;;;;;;;;;;;;;;5075800;28;19967;-78
2022/09/01 09:32:18;;;;;;;;;;;;;;;;;;5080336;28;19932;-77
2022/09/01 09:34:44;;;;;;;;;;;;;;;;;;5075759;28;19925;-79
2022/09/01 09:37:19;;;;;;;;;;;;;;;;;;5078915;28;19968;-80
2022/09/01 09:39:45;;;;;;;;;;;;;;;;;;5078444;28;20393;-80
2022/09/01 09:42:14;;;;;;;;;;;;;;;;;;5078814;28;20462;-80
2022/09/01 09:44:43;;;;;;;;;;;;;;;;;;5078434;28;20022;-80
2022/09/01 09:47:10;;;;;;;;;;;;;;;;;;5079214;28;20031;-80
2022/09/01 09:49:37;;;;;;;;;;;;;;;;;;5078105;28;19925;-80
2022/09/01 09:52:13;;;;;;;;;;;;;;;;;;5079241;28;19928;-78
2022/09/01 09:54:41;;;;;;;;;;;;;;;;;;5078067;28;19925;-78
2022/09/01 09:57:12;;;;;;;;;;;;;;;;;;5077755;28;19979;-79
2022/09/01 09:59:42;;;;;;;;;;;;;;;;;;5078203;28;19971;-80
2022/09/01 10:02:24;;;;;;;;;;;;;;;;;;5091600;28;20503;-80
2022/09/01 10:04:50;;;;;;;;;;;;;;;;;;5098626;28;20022;-78
2022/09/01 10:07:23;;;;;;;;;;;;;;;;;;5097692;28;20497;-80
2022/09/01 10:09:50;;;;;;;;;;;;;;;;;;5097454;28;19935;-79
2022/09/01 10:12:17;;;;;;;;;;;;;;;;;;5103660;28;20005;-78
2022/09/01 10:14:47;;;;;;;;;;;;;;;;;;5102054;28;19939;-79
2022/09/01 10:17:15;;;;;;;;;;;;;;;;;;5097308;28;19928;-79
2022/09/01 10:19:45;;;;;;;;;;;;;;;;;;5096765;28;19928;-79
2022/09/01 10:22:12;;;;;;;;;;;;;;;;;;5097114;28;20014;-80
2022/09/01 10:24:39;;;;;;;;;;;;;;;;;;5096915;28;19958;-81
2022/09/01 10:27:09;;;;;;;;;;;;;;;;;;5096898;28;20354;-81
2022/09/01 10:29:38;;;;;;;;;;;;;;;;;;5096665;28;19925;-80
2022/09/01 10:32:08;;;;;;;;;;;;;;;;;;5097335;28;19974;-80
2022/09/01 10:34:36;;;;;;;;;;;;;;;;;;5097667;28;19970;-78
2022/09/01 10:37:03;;;;;;;;;;;;;;;;;;5097277;28;19959;-78
2022/09/01 10:39:30;;;;;;;;;;;;;;;;;;5097174;28;20018;-80
2022/09/01 10:41:57;;;;;;;;;;;;;;;;;;5097283;28;19958;-81
2022/09/01 10:44:25;;;;;;;;;;;;;;;;;;5096945;28;19928;-80
2022/09/01 10:46:52;;;;;;;;;;;;;;;;;;5097389;28;19956;-80
2022/09/01 10:49:22;;;;;;;;;;;;;;;;;;5096155;28;20275;-80
2022/09/01 10:51:49;;;;;;;;;;;;;;;;;;5096563;28;20508;-80
2022/09/01 10:54:40;;;;;;;;;;;;;;;;;;5096773;28;19982;-80
2022/09/01 10:57:08;;;;;;;;;;;;;;;;;;5094776;28;20030;-81
2022/09/01 10:59:35;;;;;;;;;;;;;;;;;;5096684;28;20346;-79
2022/09/01 11:02:14;;;;;;;;;;;;;;;;;;5085037;28;20030;-80
2022/09/01 11:04:59;;;;;;;;;;;;;;;;;;5076182;28;19924;-80
2022/09/01 11:07:34;;;;;;;;;;;;;;;;;;5077909;28;19963;-78
2022/09/01 11:10:12;;;;;;;;;;;;;;;;;;5077774;28;19971;-79
2022/09/01 11:12:47;;;;;;;;;;;;;;;;;;5077246;28;20070;-79
2022/09/01 11:15:34;;;;;;;;;;;;;;;;;;5074012;28;19935;-77
2022/09/01 11:18:00;;;;;;;;;;;;;;;;;;5072409;28;19997;-77
2022/09/01 11:20:28;;;;;;;;;;;;;;;;;;5072181;28;19983;-77
2022/09/01 11:23:01;;;;;;;;;;;;;;;;;;5072826;28;20100;-77
2022/09/01 11:25:32;;;;;;;;;;;;;;;;;;5072640;28;19970;-77
2022/09/01 11:28:01;;;;;;;;;;;;;;;;;;5072666;28;19994;-77
2022/09/01 11:30:40;;;;;;;;;;;;;;;;;;5071816;28;20295;-77
2022/09/01 11:33:14;;;;;;;;;;;;;;;;;;5072791;28;20062;-78
2022/09/01 11:35:42;;;;;;;;;;;;;;;;;;5072717;28;20011;-77
2022/09/01 11:38:12;;;;;;;;;;;;;;;;;;5072589;28;19924;-77
2022/09/01 11:40:38;;;;;;;;;;;;;;;;;;5072332;28;20336;-78
2022/09/01 11:43:07;;;;;;;;;;;;;;;;;;5072667;28;20413;-78
2022/09/01 11:45:37;;;;;;;;;;;;;;;;;;5072362;28;20023;-78
2022/09/01 11:48:07;;;;;;;;;;;;;;;;;;5072582;28;19966;-77
2022/09/01 11:50:35;;;;;;;;;;;;;;;;;;5071441;28;19935;-77
2022/09/01 11:53:03;;;;;;;;;;;;;;;;;;5072280;28;20379;-76
2022/09/01 11:55:33;;;;;;;;;;;;;;;;;;5072316;28;19924;-77
2022/09/01 11:58:00;;;;;;;;;;;;;;;;;;5072232;28;20405;-77
2022/09/01 12:00:28;;;;;;;;;;;;;;;;;;5072467;28;20356;-77
2022/09/01 12:02:55;;;;;;;;;;;;;;;;;;5091523;28;20336;-77
2022/09/01 12:05:26;;;;;;;;;;;;;;;;;;5092255;28;19932;-77
2022/09/01 12:07:53;;;;;;;;;;;;;;;;;;5094101;28;20403;-76
2022/09/01 12:10:22;;;;;;;;;;;;;;;;;;5093220;28;19963;-77
2022/09/01 12:12:50;;;;;;;;;;;;;;;;;;5096034;28;19924;-77
2022/09/01 12:15:18;;;;;;;;;;;;;;;;;;5094655;28;19964;-79
2022/09/01 12:17:45;;;;;;;;;;;;;;;;;;5094001;28;19924;-78
2022/09/01 12:20:26;;;;;;;;;;;;;;;;;;5092410;28;19979;-78
2022/09/01 12:22:52;;;;;;;;;;;;;;;;;;5092597;28;19924;-77
2022/09/01 12:25:20;;;;;;;;;;;;;;;;;;5092352;28;20019;-77
2022/09/01 12:27:46;;;;;;;;;;;;;;;;;;5096724;28;19963;-78
2022/09/01 12:30:14;;;;;;;;;;;;;;;;;;5098837;28;19930;-77
2022/09/01 12:32:41;;;;;;;;;;;;;;;;;;5099469;28;19925;-78
2022/09/01 12:37:42;;;;;;;;;;;;;;;;;;5105939;28;19951;-78
2022/09/01 12:40:21;;;;;;;;;;;;;;;;;;5111852;28;20653;-76
2022/09/01 12:42:49;;;;;;;;;;;;;;;;;;5112204;28;20005;-76
2022/09/01 12:45:35;;;;;;;;;;;;;;;;;;5111072;28;20018;-76
2022/09/01 12:48:02;;;;;;;;;;;;;;;;;;5092069;28;19930;-75
2022/09/01 12:50:45;;;;;;;;;;;;;;;;;;5091591;28;19967;-76
2022/09/01 12:53:17;;;;;;;;;;;;;;;;;;5091923;28;19924;-77
2022/09/01 12:55:53;;;;;;;;;;;;;;;;;;5091643;28;19924;-75
2022/09/01 12:58:21;;;;;;;;;;;;;;;;;;5091703;28;19975;-75
2022/09/01 13:00:56;;;;;;;;;;;;;;;;;;5091061;28;19928;-76
2022/09/01 13:03:23;;;;;;;;;;;;;;;;;;5093313;28;19932;-76
2022/09/01 13:05:51;;;;;;;;;;;;;;;;;;5095435;28;19950;-76
2022/09/01 13:08:19;;;;;;;;;;;;;;;;;;5095537;28;19928;-76
2022/09/01 13:10:46;;;;;;;;;;;;;;;;;;5095149;28;19959;-76
2022/09/01 13:13:15;;;;;;;;;;;;;;;;;;5095961;28;20015;-76
2022/09/01 13:15:44;;;;;;;;;;;;;;;;;;5095403;28;19924;-76
2022/09/01 13:18:12;;;;;;;;;;;;;;;;;;5095303;28;19931;-76
2022/09/01 13:20:38;;;;;;;;;;;;;;;;;;5095051;28;20422;-76
2022/09/01 13:23:05;;;;;;;;;;;;;;;;;;5095544;28;19974;-76
2022/09/01 13:25:32;;;;;;;;;;;;;;;;;;5095642;28;19970;-75
2022/09/01 13:28:01;;;;;;;;;;;;;;;;;;5095739;28;19934;-75
2022/09/01 13:30:28;;;;;;;;;;;;;;;;;;5095210;28;19934;-76
2022/09/01 13:32:55;;;;;;;;;;;;;;;;;;5095036;28;19924;-74
2022/09/01 13:35:23;;;;;;;;;;;;;;;;;;5094836;28;20357;-76
2022/09/01 13:37:50;;;;;;;;;;;;;;;;;;5095100;28;19932;-77
2022/09/01 13:40:18;;;;;;;;;;;;;;;;;;5094569;28;20554;-77
2022/09/01 13:42:45;;;;;;;;;;;;;;;;;;5095017;28;19924;-74
2022/09/01 13:45:12;;;;;;;;;;;;;;;;;;5095072;28;19971;-76
2022/09/01 13:47:39;;;;;;;;;;;;;;;;;;5094661;28;20016;-76
2022/09/01 13:50:06;;;;;;;;;;;;;;;;;;5094418;28;19931;-76
2022/09/01 13:52:34;;;;;;;;;;;;;;;;;;5094755;28;19924;-76
2022/09/01 13:55:01;;;;;;;;;;;;;;;;;;5094694;28;20305;-76
2022/09/01 13:57:29;;;;;;;;;;;;;;;;;;5094579;28;19924;-76
2022/09/01 13:59:57;;;;;;;;;;;;;;;;;;5093968;28;19924;-77
2022/09/01 14:02:25;;;;;;;;;;;;;;;;;;5080029;28;19925;-76
2022/09/01 14:04:51;;;;;;;;;;;;;;;;;;5075421;28;20370;-76
2022/09/01 14:07:19;;;;;;;;;;;;;;;;;;5074462;28;20050;-77
2022/09/01 14:09:46;;;;;;;;;;;;;;;;;;5074102;28;20441;-76
2022/09/01 14:12:13;;;;;;;;;;;;;;;;;;5074476;28;19925;-76
2022/09/01 14:14:39;;;;;;;;;;;;;;;;;;5073776;28;20035;-76
2022/09/01 14:17:06;;;;;;;;;;;;;;;;;;5074269;28;19932;-76
2022/09/01 14:19:33;;;;;;;;;;;;;;;;;;5073944;28;19929;-75
2022/09/01 14:22:04;;;;;;;;;;;;;;;;;;5074385;28;19925;-76
2022/09/01 14:24:31;;;;;;;;;;;;;;;;;;5073927;28;19978;-75
2022/09/01 14:26:59;;;;;;;;;;;;;;;;;;5073551;28;20280;-74
2022/09/01 14:29:26;;;;;;;;;;;;;;;;;;5074232;28;19946;-76
2022/09/01 14:31:55;;;;;;;;;;;;;;;;;;5073771;28;19981;-76
2022/09/01 14:34:23;;;;;;;;;;;;;;;;;;5074092;28;19970;-76
2022/09/01 14:36:49;;;;;;;;;;;;;;;;;;5073743;28;19929;-76
2022/09/01 14:39:16;;;;;;;;;;;;;;;;;;5074072;28;19959;-77
2022/09/01 14:41:42;;;;;;;;;;;;;;;;;;5073145;28;19948;-76
2022/09/01 14:44:10;;;;;;;;;;;;;;;;;;5073651;28;19967;-76
2022/09/01 14:46:37;;;;;;;;;;;;;;;;;;5073477;28;19963;-75
2022/09/01 14:49:04;;;;;;;;;;;;;;;;;;5073394;28;19924;-76
2022/09/01 14:51:31;;;;;;;;;;;;;;;;;;5073567;28;19925;-75
2022/09/01 14:53:58;;;;;;;;;;;;;;;;;;5073251;28;19939;-76
2022/09/01 14:56:25;;;;;;;;;;;;;;;;;;5073823;28;19972;-76
2022/09/01 14:58:57;;;;;;;;;;;;;;;;;;5073073;28;20410;-75
2022/09/01 15:01:25;;;;;;;;;;;;;;;;;;5079323;28;20382;-74
2022/09/01 15:03:52;;;;;;;;;;;;;;;;;;5093888;28;19924;-76
2022/09/01 15:06:20;;;;;;;;;;;;;;;;;;5093339;28;20359;-76
2022/09/01 15:08:47;;;;;;;;;;;;;;;;;;5093336;28;20343;-74
2022/09/01 15:11:14;;;;;;;;;;;;;;;;;;5093462;28;19969;-76
2022/09/01 15:13:41;;;;;;;;;;;;;;;;;;5093542;28;19974;-76
2022/09/01 15:16:12;;;;;;;;;;;;;;;;;;5093107;28;19924;-75
2022/09/01 15:18:40;;;;;;;;;;;;;;;;;;5093088;28;19979;-75
2022/09/01 15:21:08;;;;;;;;;;;;;;;;;;5092653;28;20364;-75
2022/09/01 15:23:34;;;;;;;;;;;;;;;;;;5092983;28;19928;-76
2022/09/01 15:26:00;;;;;;;;;;;;;;;;;;5092371;28;20391;-76
2022/09/01 15:28:27;;;;;;;;;;;;;;;;;;5092764;28;19963;-75
2022/09/01 15:30:55;;;;;;;;;;;;;;;;;;5092767;28;19978;-75
2022/09/01 15:33:22;;;;;;;;;;;;;;;;;;5093023;28;19924;-75
2022/09/01 15:35:50;;;;;;;;;;;;;;;;;;5093008;28;19931;-75
2022/09/01 15:38:16;;;;;;;;;;;;;;;;;;5092587;28;19931;-76
2022/09/01 15:40:43;;;;;;;;;;;;;;;;;;5092956;28;19963;-76
2022/09/01 15:43:11;;;;;;;;;;;;;;;;;;5093021;28;20348;-76
2022/09/01 15:45:37;;;;;;;;;;;;;;;;;;5093031;28;20019;-76
2022/09/01 15:48:04;;;;;;;;;;;;;;;;;;5093107;28;19993;-76
2022/09/01 15:50:31;;;;;;;;;;;;;;;;;;5092671;28;20062;-76
2022/09/01 15:53:00;;;;;;;;;;;;;;;;;;5092543;28;19978;-76
2022/09/01 15:55:28;;;;;;;;;;;;;;;;;;5092651;28;19924;-77
2022/09/01 15:57:54;;;;;;;;;;;;;;;;;;5092424;28;19970;-76
2022/09/01 16:00:21;;;;;;;;;;;;;;;;;;5092404;28;20370;-76
2022/09/01 16:02:48;;;;;;;;;;;;;;;;;;5074665;28;19924;-76
2022/09/01 16:05:14;;;;;;;;;;;;;;;;;;5072752;28;20023;-75
2022/09/01 16:07:41;;;;;;;;;;;;;;;;;;5072573;28;19930;-74
2022/09/01 16:10:11;;;;;;;;;;;;;;;;;;5072854;28;20012;-75
2022/09/01 16:12:39;;;;;;;;;;;;;;;;;;5072170;28;20375;-76
2022/09/01 16:15:06;;;;;;;;;;;;;;;;;;5072278;28;20333;-76
2022/09/01 16:17:40;;;;;;;;;;;;;;;;;;5071937;28;19924;-76
2022/09/01 16:20:09;;;;;;;;;;;;;;;;;;5071662;28;19925;-76
2022/09/01 16:22:37;;;;;;;;;;;;;;;;;;5072249;28;19924;-76
2022/09/01 16:25:07;;;;;;;;;;;;;;;;;;5072539;28;19978;-76
2022/09/01 16:27:36;;;;;;;;;;;;;;;;;;5072265;28;20010;-75
2022/09/01 16:30:03;;;;;;;;;;;;;;;;;;5072044;28;19976;-75
2022/09/01 16:32:32;;;;;;;;;;;;;;;;;;5072088;28;19929;-75
2022/09/01 16:35:00;;;;;;;;;;;;;;;;;;5072004;28;19924;-76
2022/09/01 16:37:39;;;;;;;;;;;;;;;;;;5073496;28;19925;-76
2022/09/01 16:40:10;;;;;;;;;;;;;;;;;;5076809;28;19932;-75
2022/09/01 16:42:41;;;;;;;;;;;;;;;;;;5079925;28;20019;-77
2022/09/01 16:45:10;;;;;;;;;;;;;;;;;;5079045;28;20023;-76
2022/09/01 16:47:50;;;;;;;;;;;;;;;;;;5079242;28;19924;-75
2022/09/01 16:50:22;;;;;;;;;;;;;;;;;;5076354;28;20387;-77
2022/09/01 16:53:06;;;;;;;;;;;;;;;;;;5076073;28;19925;-75
2022/09/01 16:55:36;;;;;;;;;;;;;;;;;;5075714;28;20410;-76
2022/09/01 16:58:08;;;;;;;;;;;;;;;;;;5075632;28;19924;-76
2022/09/01 17:00:37;;;;;;;;;;;;;;;;;;5075907;28;20369;-75
2022/09/01 17:03:07;;;;;;;;;;;;;;;;;;5075918;28;20006;-76
2022/09/01 17:05:36;;;;;;;;;;;;;;;;;;5076061;28;19924;-76